sensor_id;sensor_type;location;lat;lon;timestamp;P1;durP1;ratioP1;P2;durP2;ratioP2
16330;SDS011;8275;48.206;16.340;2022-12-29T00:00:08;9.20;;;8.27;;
16330;SDS011;8275;48.206;16.340;2022-12-29T00:02:38;13.13;;;9.40;;
16330;SDS011;8275;48.206;16.340;2022-12-29T00:05:07;9.63;;;8.40;;
16330;SDS011;8275;48.206;16.340;2022-12-29T00:07:36;8.27;;;7.03;;
16330;SDS011;8275;48.206;16.340;2022-12-29T00:10:05;11.50;;;7.97;;
16330;SDS011;8275;48.206;16.340;2022-12-29T00:12:34;10.53;;;7.50;;
16330;SDS011;8275;48.206;16.340;2022-12-29T00:15:22;7.30;;;5.27;;
16330;SDS011;8275;48.206;16.340;2022-12-29T00:18:06;8.63;;;5.03;;
16330;SDS011;8275;48.206;16.340;2022-12-29T00:20:35;9.30;;;6.67;;
16330;SDS011;8275;48.206;16.340;2022-12-29T00:23:22;6.37;;;5.77;;
16330;SDS011;8275;48.206;16.340;2022-12-29T00:26:10;7.47;;;5.07;;
16330;SDS011;8275;48.206;16.340;2022-12-29T00:28:58;9.20;;;5.87;;
16330;SDS011;8275;48.206;16.340;2022-12-29T00:31:46;9.20;;;5.63;;
16330;SDS011;8275;48.206;16.340;2022-12-29T00:34:32;11.43;;;5.63;;
16330;SDS011;8275;48.206;16.340;2022-12-29T00:37:18;6.47;;;5.33;;
16330;SDS011;8275;48.206;16.340;2022-12-29T00:40:07;5.30;;;4.80;;
16330;SDS011;8275;48.206;16.340;2022-12-29T00:42:54;9.93;;;5.63;;
16330;SDS011;8275;48.206;16.340;2022-12-29T00:45:40;5.97;;;5.20;;
16330;SDS011;8275;48.206;16.340;2022-12-29T00:48:10;5.60;;;5.00;;
16330;SDS011;8275;48.206;16.340;2022-12-29T00:50:39;6.97;;;6.27;;
16330;SDS011;8275;48.206;16.340;2022-12-29T00:53:06;7.70;;;6.27;;
16330;SDS011;8275;48.206;16.340;2022-12-29T00:55:36;7.43;;;5.73;;
16330;SDS011;8275;48.206;16.340;2022-12-29T00:58:04;6.57;;;4.97;;
16330;SDS011;8275;48.206;16.340;2022-12-29T01:00:33;4.87;;;4.47;;
16330;SDS011;8275;48.206;16.340;2022-12-29T01:03:01;6.67;;;4.67;;
16330;SDS011;8275;48.206;16.340;2022-12-29T01:05:35;6.33;;;4.23;;
16330;SDS011;8275;48.206;16.340;2022-12-29T01:08:04;9.23;;;6.67;;
16330;SDS011;8275;48.206;16.340;2022-12-29T01:10:32;5.33;;;4.83;;
16330;SDS011;8275;48.206;16.340;2022-12-29T01:13:00;6.70;;;5.47;;
16330;SDS011;8275;48.206;16.340;2022-12-29T01:15:28;7.80;;;6.90;;
16330;SDS011;8275;48.206;16.340;2022-12-29T01:17:56;10.03;;;6.30;;
16330;SDS011;8275;48.206;16.340;2022-12-29T01:20:25;9.70;;;6.60;;
16330;SDS011;8275;48.206;16.340;2022-12-29T01:22:56;9.47;;;8.17;;
16330;SDS011;8275;48.206;16.340;2022-12-29T01:25:24;8.37;;;7.00;;
16330;SDS011;8275;48.206;16.340;2022-12-29T01:27:53;10.97;;;7.03;;
16330;SDS011;8275;48.206;16.340;2022-12-29T01:30:21;6.93;;;6.23;;
16330;SDS011;8275;48.206;16.340;2022-12-29T01:32:49;6.53;;;5.93;;
16330;SDS011;8275;48.206;16.340;2022-12-29T01:35:18;7.63;;;6.83;;
16330;SDS011;8275;48.206;16.340;2022-12-29T01:37:46;10.23;;;8.00;;
16330;SDS011;8275;48.206;16.340;2022-12-29T01:40:16;8.43;;;5.23;;
16330;SDS011;8275;48.206;16.340;2022-12-29T01:42:45;8.97;;;6.53;;
16330;SDS011;8275;48.206;16.340;2022-12-29T01:45:13;12.00;;;6.93;;
16330;SDS011;8275;48.206;16.340;2022-12-29T01:47:44;6.97;;;6.23;;
16330;SDS011;8275;48.206;16.340;2022-12-29T01:50:16;9.30;;;6.27;;
16330;SDS011;8275;48.206;16.340;2022-12-29T01:52:50;6.20;;;5.67;;
16330;SDS011;8275;48.206;16.340;2022-12-29T01:55:25;8.23;;;6.10;;
16330;SDS011;8275;48.206;16.340;2022-12-29T01:57:54;8.30;;;6.80;;
16330;SDS011;8275;48.206;16.340;2022-12-29T02:00:26;7.90;;;6.70;;
16330;SDS011;8275;48.206;16.340;2022-12-29T02:02:55;9.03;;;7.17;;
16330;SDS011;8275;48.206;16.340;2022-12-29T02:05:25;6.47;;;5.83;;
16330;SDS011;8275;48.206;16.340;2022-12-29T02:08:01;7.87;;;5.70;;
16330;SDS011;8275;48.206;16.340;2022-12-29T02:10:32;7.87;;;7.07;;
16330;SDS011;8275;48.206;16.340;2022-12-29T02:13:02;8.17;;;6.03;;
16330;SDS011;8275;48.206;16.340;2022-12-29T02:15:33;7.57;;;6.07;;
16330;SDS011;8275;48.206;16.340;2022-12-29T02:18:13;11.30;;;7.03;;
16330;SDS011;8275;48.206;16.340;2022-12-29T02:21:01;7.70;;;5.40;;
16330;SDS011;8275;48.206;16.340;2022-12-29T02:24:24;8.53;;;6.67;;
16330;SDS011;8275;48.206;16.340;2022-12-29T02:27:27;7.77;;;5.50;;
16330;SDS011;8275;48.206;16.340;2022-12-29T02:33:31;3.77;;;3.47;;
16330;SDS011;8275;48.206;16.340;2022-12-29T02:36:18;7.10;;;6.40;;
16330;SDS011;8275;48.206;16.340;2022-12-29T02:38:59;6.20;;;5.53;;
16330;SDS011;8275;48.206;16.340;2022-12-29T02:41:39;8.17;;;6.27;;
16330;SDS011;8275;48.206;16.340;2022-12-29T02:44:24;7.80;;;6.57;;
16330;SDS011;8275;48.206;16.340;2022-12-29T02:46:58;7.07;;;5.87;;
16330;SDS011;8275;48.206;16.340;2022-12-29T02:49:37;5.90;;;5.17;;
16330;SDS011;8275;48.206;16.340;2022-12-29T02:52:16;6.37;;;5.77;;
16330;SDS011;8275;48.206;16.340;2022-12-29T02:54:50;6.57;;;5.93;;
16330;SDS011;8275;48.206;16.340;2022-12-29T02:57:28;9.77;;;6.70;;
16330;SDS011;8275;48.206;16.340;2022-12-29T03:00:01;5.40;;;4.90;;
16330;SDS011;8275;48.206;16.340;2022-12-29T03:05:51;9.57;;;5.73;;
16330;SDS011;8275;48.206;16.340;2022-12-29T03:08:41;8.93;;;6.33;;
16330;SDS011;8275;48.206;16.340;2022-12-29T03:11:17;8.13;;;6.93;;
16330;SDS011;8275;48.206;16.340;2022-12-29T03:14:05;5.93;;;5.37;;
16330;SDS011;8275;48.206;16.340;2022-12-29T03:17:00;9.97;;;6.90;;
16330;SDS011;8275;48.206;16.340;2022-12-29T03:19:46;6.60;;;5.53;;
16330;SDS011;8275;48.206;16.340;2022-12-29T03:22:19;8.47;;;6.80;;
16330;SDS011;8275;48.206;16.340;2022-12-29T03:24:56;7.20;;;6.50;;
16330;SDS011;8275;48.206;16.340;2022-12-29T03:27:29;8.03;;;6.93;;
16330;SDS011;8275;48.206;16.340;2022-12-29T03:30:02;7.83;;;6.30;;
16330;SDS011;8275;48.206;16.340;2022-12-29T03:32:36;7.53;;;5.53;;
16330;SDS011;8275;48.206;16.340;2022-12-29T03:35:11;7.37;;;5.70;;
16330;SDS011;8275;48.206;16.340;2022-12-29T03:37:44;8.57;;;6.50;;
16330;SDS011;8275;48.206;16.340;2022-12-29T03:40:19;8.17;;;6.07;;
16330;SDS011;8275;48.206;16.340;2022-12-29T03:42:51;7.33;;;6.53;;
16330;SDS011;8275;48.206;16.340;2022-12-29T03:45:21;7.00;;;5.37;;
16330;SDS011;8275;48.206;16.340;2022-12-29T03:47:49;8.57;;;6.47;;
16330;SDS011;8275;48.206;16.340;2022-12-29T03:50:20;7.33;;;5.63;;
16330;SDS011;8275;48.206;16.340;2022-12-29T03:52:49;6.60;;;5.63;;
16330;SDS011;8275;48.206;16.340;2022-12-29T03:55:17;9.63;;;5.90;;
16330;SDS011;8275;48.206;16.340;2022-12-29T03:57:46;4.87;;;4.37;;
16330;SDS011;8275;48.206;16.340;2022-12-29T04:00:14;7.47;;;5.13;;
16330;SDS011;8275;48.206;16.340;2022-12-29T04:02:43;7.07;;;6.47;;
16330;SDS011;8275;48.206;16.340;2022-12-29T04:05:12;5.90;;;4.77;;
16330;SDS011;8275;48.206;16.340;2022-12-29T04:07:42;6.23;;;5.60;;
16330;SDS011;8275;48.206;16.340;2022-12-29T04:10:10;7.93;;;5.50;;
16330;SDS011;8275;48.206;16.340;2022-12-29T04:12:39;9.07;;;5.73;;
16330;SDS011;8275;48.206;16.340;2022-12-29T04:15:09;6.30;;;5.43;;
16330;SDS011;8275;48.206;16.340;2022-12-29T04:17:37;6.93;;;6.00;;
16330;SDS011;8275;48.206;16.340;2022-12-29T04:20:06;5.80;;;4.83;;
16330;SDS011;8275;48.206;16.340;2022-12-29T04:22:59;7.90;;;6.27;;
16330;SDS011;8275;48.206;16.340;2022-12-29T04:25:28;6.20;;;4.83;;
16330;SDS011;8275;48.206;16.340;2022-12-29T04:27:58;8.97;;;6.97;;
16330;SDS011;8275;48.206;16.340;2022-12-29T04:30:26;6.93;;;5.33;;
16330;SDS011;8275;48.206;16.340;2022-12-29T04:32:55;7.10;;;5.93;;
16330;SDS011;8275;48.206;16.340;2022-12-29T04:35:23;6.13;;;5.43;;
16330;SDS011;8275;48.206;16.340;2022-12-29T04:37:52;6.70;;;5.37;;
16330;SDS011;8275;48.206;16.340;2022-12-29T04:40:21;5.90;;;5.30;;
16330;SDS011;8275;48.206;16.340;2022-12-29T04:42:50;4.83;;;4.40;;
16330;SDS011;8275;48.206;16.340;2022-12-29T04:45:19;4.63;;;4.23;;
16330;SDS011;8275;48.206;16.340;2022-12-29T04:47:47;7.90;;;6.77;;
16330;SDS011;8275;48.206;16.340;2022-12-29T04:50:16;6.67;;;6.00;;
16330;SDS011;8275;48.206;16.340;2022-12-29T04:52:44;6.63;;;4.77;;
16330;SDS011;8275;48.206;16.340;2022-12-29T04:55:13;9.17;;;5.83;;
16330;SDS011;8275;48.206;16.340;2022-12-29T04:57:45;5.87;;;5.33;;
16330;SDS011;8275;48.206;16.340;2022-12-29T05:00:14;6.97;;;5.00;;
16330;SDS011;8275;48.206;16.340;2022-12-29T05:02:43;9.27;;;6.03;;
16330;SDS011;8275;48.206;16.340;2022-12-29T05:05:12;8.63;;;6.17;;
16330;SDS011;8275;48.206;16.340;2022-12-29T05:07:41;9.10;;;5.90;;
16330;SDS011;8275;48.206;16.340;2022-12-29T05:10:10;7.83;;;5.07;;
16330;SDS011;8275;48.206;16.340;2022-12-29T05:12:39;6.20;;;5.03;;
16330;SDS011;8275;48.206;16.340;2022-12-29T05:15:09;8.17;;;6.47;;
16330;SDS011;8275;48.206;16.340;2022-12-29T05:17:39;8.53;;;6.13;;
16330;SDS011;8275;48.206;16.340;2022-12-29T05:20:08;6.20;;;5.60;;
16330;SDS011;8275;48.206;16.340;2022-12-29T05:22:38;6.73;;;5.30;;
16330;SDS011;8275;48.206;16.340;2022-12-29T05:25:06;7.40;;;5.90;;
16330;SDS011;8275;48.206;16.340;2022-12-29T05:27:36;7.83;;;6.77;;
16330;SDS011;8275;48.206;16.340;2022-12-29T05:30:05;7.63;;;5.83;;
16330;SDS011;8275;48.206;16.340;2022-12-29T05:32:36;6.30;;;5.23;;
16330;SDS011;8275;48.206;16.340;2022-12-29T05:35:05;5.97;;;5.17;;
16330;SDS011;8275;48.206;16.340;2022-12-29T05:37:35;8.17;;;6.33;;
16330;SDS011;8275;48.206;16.340;2022-12-29T05:40:04;9.07;;;6.10;;
16330;SDS011;8275;48.206;16.340;2022-12-29T05:42:34;8.17;;;7.20;;
16330;SDS011;8275;48.206;16.340;2022-12-29T05:45:02;7.30;;;6.60;;
16330;SDS011;8275;48.206;16.340;2022-12-29T05:47:33;8.90;;;7.30;;
16330;SDS011;8275;48.206;16.340;2022-12-29T05:50:03;9.77;;;6.40;;
16330;SDS011;8275;48.206;16.340;2022-12-29T05:52:32;11.23;;;6.70;;
16330;SDS011;8275;48.206;16.340;2022-12-29T05:55:01;6.40;;;5.80;;
16330;SDS011;8275;48.206;16.340;2022-12-29T05:57:29;8.63;;;5.67;;
16330;SDS011;8275;48.206;16.340;2022-12-29T05:59:58;8.10;;;6.33;;
16330;SDS011;8275;48.206;16.340;2022-12-29T06:02:27;8.77;;;7.00;;
16330;SDS011;8275;48.206;16.340;2022-12-29T06:04:55;8.77;;;6.33;;
16330;SDS011;8275;48.206;16.340;2022-12-29T06:07:25;7.93;;;6.87;;
16330;SDS011;8275;48.206;16.340;2022-12-29T06:09:54;7.97;;;7.17;;
16330;SDS011;8275;48.206;16.340;2022-12-29T06:12:22;8.53;;;6.50;;
16330;SDS011;8275;48.206;16.340;2022-12-29T06:14:50;7.97;;;7.10;;
16330;SDS011;8275;48.206;16.340;2022-12-29T06:17:19;7.43;;;5.63;;
16330;SDS011;8275;48.206;16.340;2022-12-29T06:19:47;10.93;;;6.70;;
16330;SDS011;8275;48.206;16.340;2022-12-29T06:22:16;9.47;;;6.73;;
16330;SDS011;8275;48.206;16.340;2022-12-29T06:24:45;8.87;;;6.83;;
16330;SDS011;8275;48.206;16.340;2022-12-29T06:27:14;8.90;;;7.37;;
16330;SDS011;8275;48.206;16.340;2022-12-29T06:29:42;9.00;;;5.87;;
16330;SDS011;8275;48.206;16.340;2022-12-29T06:32:11;10.90;;;6.50;;
16330;SDS011;8275;48.206;16.340;2022-12-29T06:34:39;8.80;;;7.50;;
16330;SDS011;8275;48.206;16.340;2022-12-29T06:37:08;7.67;;;6.87;;
16330;SDS011;8275;48.206;16.340;2022-12-29T06:39:36;7.90;;;6.90;;
16330;SDS011;8275;48.206;16.340;2022-12-29T06:42:06;9.13;;;6.57;;
16330;SDS011;8275;48.206;16.340;2022-12-29T06:44:36;8.60;;;7.80;;
16330;SDS011;8275;48.206;16.340;2022-12-29T06:47:04;9.53;;;7.27;;
16330;SDS011;8275;48.206;16.340;2022-12-29T06:49:32;15.57;;;9.67;;
16330;SDS011;8275;48.206;16.340;2022-12-29T06:52:01;13.10;;;7.77;;
16330;SDS011;8275;48.206;16.340;2022-12-29T06:54:38;8.63;;;7.23;;
16330;SDS011;8275;48.206;16.340;2022-12-29T06:57:07;11.13;;;8.97;;
16330;SDS011;8275;48.206;16.340;2022-12-29T06:59:36;14.03;;;9.80;;
16330;SDS011;8275;48.206;16.340;2022-12-29T07:02:05;11.13;;;9.33;;
16330;SDS011;8275;48.206;16.340;2022-12-29T07:04:33;11.30;;;9.23;;
16330;SDS011;8275;48.206;16.340;2022-12-29T07:07:02;12.07;;;8.93;;
16330;SDS011;8275;48.206;16.340;2022-12-29T07:09:31;9.47;;;7.60;;
16330;SDS011;8275;48.206;16.340;2022-12-29T07:11:59;13.90;;;9.47;;
16330;SDS011;8275;48.206;16.340;2022-12-29T07:14:29;13.20;;;8.20;;
16330;SDS011;8275;48.206;16.340;2022-12-29T07:17:06;12.67;;;9.60;;
16330;SDS011;8275;48.206;16.340;2022-12-29T07:19:34;15.10;;;9.10;;
16330;SDS011;8275;48.206;16.340;2022-12-29T07:22:03;13.37;;;8.97;;
16330;SDS011;8275;48.206;16.340;2022-12-29T07:24:31;11.65;;;9.18;;
16330;SDS011;8275;48.206;16.340;2022-12-29T07:26:59;12.87;;;9.00;;
16330;SDS011;8275;48.206;16.340;2022-12-29T07:29:29;11.10;;;9.80;;
16330;SDS011;8275;48.206;16.340;2022-12-29T07:31:57;9.53;;;8.33;;
16330;SDS011;8275;48.206;16.340;2022-12-29T07:34:26;11.87;;;8.70;;
16330;SDS011;8275;48.206;16.340;2022-12-29T07:36:54;11.50;;;9.73;;
16330;SDS011;8275;48.206;16.340;2022-12-29T07:39:23;12.27;;;8.63;;
16330;SDS011;8275;48.206;16.340;2022-12-29T07:41:52;13.30;;;9.30;;
16330;SDS011;8275;48.206;16.340;2022-12-29T07:44:28;14.07;;;10.97;;
16330;SDS011;8275;48.206;16.340;2022-12-29T07:46:57;13.13;;;8.53;;
16330;SDS011;8275;48.206;16.340;2022-12-29T07:49:27;12.63;;;9.40;;
16330;SDS011;8275;48.206;16.340;2022-12-29T07:51:56;13.00;;;8.73;;
16330;SDS011;8275;48.206;16.340;2022-12-29T07:54:24;14.73;;;9.97;;
16330;SDS011;8275;48.206;16.340;2022-12-29T07:56:53;13.73;;;10.80;;
16330;SDS011;8275;48.206;16.340;2022-12-29T07:59:21;10.77;;;8.87;;
16330;SDS011;8275;48.206;16.340;2022-12-29T08:01:52;13.90;;;10.90;;
16330;SDS011;8275;48.206;16.340;2022-12-29T08:04:21;17.87;;;9.20;;
16330;SDS011;8275;48.206;16.340;2022-12-29T08:06:49;13.43;;;10.63;;
16330;SDS011;8275;48.206;16.340;2022-12-29T08:09:18;12.00;;;9.90;;
16330;SDS011;8275;48.206;16.340;2022-12-29T08:11:49;13.40;;;9.50;;
16330;SDS011;8275;48.206;16.340;2022-12-29T08:14:18;14.73;;;10.70;;
16330;SDS011;8275;48.206;16.340;2022-12-29T08:16:47;14.53;;;11.33;;
16330;SDS011;8275;48.206;16.340;2022-12-29T08:19:16;18.60;;;10.40;;
16330;SDS011;8275;48.206;16.340;2022-12-29T08:21:45;10.90;;;9.77;;
16330;SDS011;8275;48.206;16.340;2022-12-29T08:24:13;15.68;;;10.90;;
16330;SDS011;8275;48.206;16.340;2022-12-29T08:26:42;21.48;;;12.80;;
16330;SDS011;8275;48.206;16.340;2022-12-29T08:29:10;16.08;;;11.55;;
16330;SDS011;8275;48.206;16.340;2022-12-29T08:31:39;18.67;;;10.15;;
16330;SDS011;8275;48.206;16.340;2022-12-29T08:34:08;17.00;;;11.25;;
16330;SDS011;8275;48.206;16.340;2022-12-29T08:36:38;15.75;;;11.82;;
16330;SDS011;8275;48.206;16.340;2022-12-29T08:39:07;14.43;;;11.07;;
16330;SDS011;8275;48.206;16.340;2022-12-29T08:41:35;12.70;;;11.38;;
16330;SDS011;8275;48.206;16.340;2022-12-29T08:44:04;12.50;;;11.23;;
16330;SDS011;8275;48.206;16.340;2022-12-29T08:46:33;14.23;;;11.27;;
16330;SDS011;8275;48.206;16.340;2022-12-29T08:49:01;17.20;;;14.00;;
16330;SDS011;8275;48.206;16.340;2022-12-29T08:51:30;11.15;;;10.02;;
16330;SDS011;8275;48.206;16.340;2022-12-29T08:54:00;13.82;;;12.02;;
16330;SDS011;8275;48.206;16.340;2022-12-29T08:56:29;20.25;;;9.75;;
16330;SDS011;8275;48.206;16.340;2022-12-29T08:58:57;16.65;;;11.05;;
16330;SDS011;8275;48.206;16.340;2022-12-29T09:01:26;14.13;;;9.98;;
16330;SDS011;8275;48.206;16.340;2022-12-29T09:03:54;17.75;;;10.88;;
16330;SDS011;8275;48.206;16.340;2022-12-29T09:06:42;15.30;;;9.53;;
16330;SDS011;8275;48.206;16.340;2022-12-29T09:09:13;13.05;;;10.93;;
16330;SDS011;8275;48.206;16.340;2022-12-29T09:11:42;17.15;;;11.70;;
16330;SDS011;8275;48.206;16.340;2022-12-29T09:14:11;14.50;;;11.07;;
16330;SDS011;8275;48.206;16.340;2022-12-29T09:16:40;13.03;;;10.67;;
16330;SDS011;8275;48.206;16.340;2022-12-29T09:19:26;12.63;;;10.32;;
16330;SDS011;8275;48.206;16.340;2022-12-29T09:21:55;12.63;;;9.10;;
16330;SDS011;8275;48.206;16.340;2022-12-29T09:24:25;17.02;;;11.05;;
16330;SDS011;8275;48.206;16.340;2022-12-29T09:26:53;13.07;;;10.30;;
16330;SDS011;8275;48.206;16.340;2022-12-29T09:29:22;10.32;;;9.25;;
16330;SDS011;8275;48.206;16.340;2022-12-29T09:31:50;11.88;;;8.20;;
16330;SDS011;8275;48.206;16.340;2022-12-29T09:34:19;11.68;;;7.68;;
16330;SDS011;8275;48.206;16.340;2022-12-29T09:36:47;10.77;;;9.20;;
16330;SDS011;8275;48.206;16.340;2022-12-29T09:39:16;13.13;;;9.70;;
16330;SDS011;8275;48.206;16.340;2022-12-29T09:41:47;12.65;;;10.73;;
16330;SDS011;8275;48.206;16.340;2022-12-29T09:44:26;11.18;;;9.73;;
16330;SDS011;8275;48.206;16.340;2022-12-29T09:47:13;10.85;;;9.75;;
16330;SDS011;8275;48.206;16.340;2022-12-29T09:49:44;12.50;;;9.00;;
16330;SDS011;8275;48.206;16.340;2022-12-29T09:52:18;10.70;;;8.40;;
16330;SDS011;8275;48.206;16.340;2022-12-29T09:54:52;11.00;;;9.02;;
16330;SDS011;8275;48.206;16.340;2022-12-29T09:57:34;11.77;;;8.77;;
16330;SDS011;8275;48.206;16.340;2022-12-29T10:00:11;13.95;;;10.75;;
16330;SDS011;8275;48.206;16.340;2022-12-29T10:02:44;12.80;;;10.15;;
16330;SDS011;8275;48.206;16.340;2022-12-29T10:05:20;13.32;;;9.18;;
16330;SDS011;8275;48.206;16.340;2022-12-29T10:08:02;13.40;;;10.65;;
16330;SDS011;8275;48.206;16.340;2022-12-29T10:10:53;16.80;;;12.32;;
16330;SDS011;8275;48.206;16.340;2022-12-29T10:13:28;12.77;;;9.60;;
16330;SDS011;8275;48.206;16.340;2022-12-29T10:16:09;21.20;;;11.65;;
16330;SDS011;8275;48.206;16.340;2022-12-29T10:21:51;13.57;;;11.05;;
16330;SDS011;8275;48.206;16.340;2022-12-29T10:24:30;13.75;;;12.35;;
16330;SDS011;8275;48.206;16.340;2022-12-29T10:27:03;12.70;;;10.90;;
16330;SDS011;8275;48.206;16.340;2022-12-29T10:29:39;14.35;;;12.13;;
16330;SDS011;8275;48.206;16.340;2022-12-29T10:32:15;14.80;;;10.13;;
16330;SDS011;8275;48.206;16.340;2022-12-29T10:34:54;13.45;;;11.48;;
16330;SDS011;8275;48.206;16.340;2022-12-29T10:37:29;20.00;;;13.73;;
16330;SDS011;8275;48.206;16.340;2022-12-29T10:40:12;15.13;;;11.07;;
16330;SDS011;8275;48.206;16.340;2022-12-29T10:42:50;13.77;;;10.57;;
16330;SDS011;8275;48.206;16.340;2022-12-29T10:45:23;13.27;;;11.18;;
16330;SDS011;8275;48.206;16.340;2022-12-29T10:47:57;15.65;;;11.52;;
16330;SDS011;8275;48.206;16.340;2022-12-29T10:50:32;15.88;;;13.40;;
16330;SDS011;8275;48.206;16.340;2022-12-29T10:53:02;16.88;;;11.80;;
16330;SDS011;8275;48.206;16.340;2022-12-29T10:55:33;16.30;;;11.38;;
16330;SDS011;8275;48.206;16.340;2022-12-29T10:58:06;17.33;;;12.90;;
16330;SDS011;8275;48.206;16.340;2022-12-29T11:00:40;17.23;;;11.52;;
16330;SDS011;8275;48.206;16.340;2022-12-29T11:03:14;14.80;;;11.40;;
16330;SDS011;8275;48.206;16.340;2022-12-29T11:06:11;13.70;;;11.32;;
16330;SDS011;8275;48.206;16.340;2022-12-29T11:08:49;15.98;;;11.70;;
16330;SDS011;8275;48.206;16.340;2022-12-29T11:11:24;14.10;;;11.35;;
16330;SDS011;8275;48.206;16.340;2022-12-29T11:14:02;11.55;;;10.38;;
16330;SDS011;8275;48.206;16.340;2022-12-29T11:16:41;13.13;;;10.13;;
16330;SDS011;8275;48.206;16.340;2022-12-29T11:19:21;12.00;;;10.80;;
16330;SDS011;8275;48.206;16.340;2022-12-29T11:21:51;12.52;;;10.50;;
16330;SDS011;8275;48.206;16.340;2022-12-29T11:24:21;13.23;;;11.73;;
16330;SDS011;8275;48.206;16.340;2022-12-29T11:26:53;13.90;;;11.13;;
16330;SDS011;8275;48.206;16.340;2022-12-29T11:29:24;15.85;;;12.15;;
16330;SDS011;8275;48.206;16.340;2022-12-29T11:32:11;13.90;;;10.77;;
16330;SDS011;8275;48.206;16.340;2022-12-29T11:34:53;14.35;;;12.40;;
16330;SDS011;8275;48.206;16.340;2022-12-29T11:37:25;15.10;;;12.48;;
16330;SDS011;8275;48.206;16.340;2022-12-29T11:39:58;14.60;;;11.90;;
16330;SDS011;8275;48.206;16.340;2022-12-29T11:42:33;13.50;;;11.00;;
16330;SDS011;8275;48.206;16.340;2022-12-29T11:45:05;17.00;;;13.40;;
16330;SDS011;8275;48.206;16.340;2022-12-29T11:47:44;17.05;;;13.55;;
16330;SDS011;8275;48.206;16.340;2022-12-29T11:50:17;12.90;;;10.88;;
16330;SDS011;8275;48.206;16.340;2022-12-29T11:52:49;15.80;;;11.93;;
16330;SDS011;8275;48.206;16.340;2022-12-29T11:55:28;16.30;;;13.60;;
16330;SDS011;8275;48.206;16.340;2022-12-29T11:57:58;20.45;;;13.25;;
16330;SDS011;8275;48.206;16.340;2022-12-29T12:00:31;18.77;;;13.45;;
16330;SDS011;8275;48.206;16.340;2022-12-29T12:03:10;16.98;;;13.18;;
16330;SDS011;8275;48.206;16.340;2022-12-29T12:05:45;19.92;;;12.52;;
16330;SDS011;8275;48.206;16.340;2022-12-29T12:08:21;14.90;;;11.68;;
16330;SDS011;8275;48.206;16.340;2022-12-29T12:11:04;16.77;;;14.90;;
16330;SDS011;8275;48.206;16.340;2022-12-29T12:13:39;13.30;;;11.13;;
16330;SDS011;8275;48.206;16.340;2022-12-29T12:16:26;13.70;;;10.75;;
16330;SDS011;8275;48.206;16.340;2022-12-29T12:19:02;17.23;;;13.90;;
16330;SDS011;8275;48.206;16.340;2022-12-29T12:21:41;13.85;;;12.38;;
16330;SDS011;8275;48.206;16.340;2022-12-29T12:24:18;16.35;;;11.60;;
16330;SDS011;8275;48.206;16.340;2022-12-29T12:27:08;17.23;;;14.00;;
16330;SDS011;8275;48.206;16.340;2022-12-29T12:29:45;17.27;;;12.95;;
16330;SDS011;8275;48.206;16.340;2022-12-29T12:32:20;17.67;;;12.10;;
16330;SDS011;8275;48.206;16.340;2022-12-29T12:35:00;15.52;;;12.05;;
16330;SDS011;8275;48.206;16.340;2022-12-29T12:37:33;14.82;;;13.35;;
16330;SDS011;8275;48.206;16.340;2022-12-29T12:40:34;13.10;;;11.15;;
16330;SDS011;8275;48.206;16.340;2022-12-29T12:43:30;14.52;;;11.63;;
16330;SDS011;8275;48.206;16.340;2022-12-29T12:46:30;16.13;;;13.18;;
16330;SDS011;8275;48.206;16.340;2022-12-29T12:49:23;15.18;;;12.35;;
16330;SDS011;8275;48.206;16.340;2022-12-29T12:52:37;11.27;;;9.35;;
16330;SDS011;8275;48.206;16.340;2022-12-29T12:55:30;15.48;;;9.93;;
16330;SDS011;8275;48.206;16.340;2022-12-29T12:58:18;14.60;;;12.88;;
16330;SDS011;8275;48.206;16.340;2022-12-29T13:01:01;14.48;;;10.93;;
16330;SDS011;8275;48.206;16.340;2022-12-29T13:03:48;14.25;;;11.32;;
16330;SDS011;8275;48.206;16.340;2022-12-29T13:06:42;17.05;;;14.98;;
16330;SDS011;8275;48.206;16.340;2022-12-29T13:09:24;18.60;;;12.82;;
16330;SDS011;8275;48.206;16.340;2022-12-29T13:12:07;15.63;;;12.35;;
16330;SDS011;8275;48.206;16.340;2022-12-29T13:14:54;15.90;;;11.27;;
16330;SDS011;8275;48.206;16.340;2022-12-29T13:17:38;19.33;;;14.45;;
16330;SDS011;8275;48.206;16.340;2022-12-29T13:20:19;13.07;;;11.35;;
16330;SDS011;8275;48.206;16.340;2022-12-29T13:22:58;12.30;;;11.07;;
16330;SDS011;8275;48.206;16.340;2022-12-29T13:25:37;16.15;;;12.45;;
16330;SDS011;8275;48.206;16.340;2022-12-29T13:28:16;14.35;;;12.85;;
16330;SDS011;8275;48.206;16.340;2022-12-29T13:30:54;14.88;;;12.57;;
16330;SDS011;8275;48.206;16.340;2022-12-29T13:33:30;15.50;;;13.85;;
16330;SDS011;8275;48.206;16.340;2022-12-29T13:36:13;18.73;;;12.88;;
16330;SDS011;8275;48.206;16.340;2022-12-29T13:38:51;16.48;;;12.30;;
16330;SDS011;8275;48.206;16.340;2022-12-29T13:41:32;16.52;;;12.90;;
16330;SDS011;8275;48.206;16.340;2022-12-29T13:44:04;18.13;;;13.20;;
16330;SDS011;8275;48.206;16.340;2022-12-29T13:46:38;21.23;;;16.83;;
16330;SDS011;8275;48.206;16.340;2022-12-29T13:49:11;20.55;;;13.45;;
16330;SDS011;8275;48.206;16.340;2022-12-29T13:51:47;18.08;;;13.13;;
16330;SDS011;8275;48.206;16.340;2022-12-29T13:54:22;23.20;;;14.57;;
16330;SDS011;8275;48.206;16.340;2022-12-29T13:57:05;16.67;;;13.32;;
16330;SDS011;8275;48.206;16.340;2022-12-29T13:59:43;15.18;;;12.20;;
16330;SDS011;8275;48.206;16.340;2022-12-29T14:02:25;15.43;;;11.73;;
16330;SDS011;8275;48.206;16.340;2022-12-29T14:05:27;17.08;;;13.65;;
16330;SDS011;8275;48.206;16.340;2022-12-29T14:07:57;16.23;;;12.48;;
16330;SDS011;8275;48.206;16.340;2022-12-29T14:10:29;15.75;;;12.77;;
16330;SDS011;8275;48.206;16.340;2022-12-29T14:13:04;17.77;;;12.93;;
16330;SDS011;8275;48.206;16.340;2022-12-29T14:15:38;15.93;;;13.43;;
16330;SDS011;8275;48.206;16.340;2022-12-29T14:18:14;20.58;;;16.17;;
16330;SDS011;8275;48.206;16.340;2022-12-29T14:20:50;19.33;;;13.50;;
16330;SDS011;8275;48.206;16.340;2022-12-29T14:23:27;15.70;;;12.87;;
16330;SDS011;8275;48.206;16.340;2022-12-29T14:26:10;15.45;;;12.55;;
16330;SDS011;8275;48.206;16.340;2022-12-29T14:28:44;14.65;;;12.25;;
16330;SDS011;8275;48.206;16.340;2022-12-29T14:31:35;20.60;;;13.82;;
16330;SDS011;8275;48.206;16.340;2022-12-29T14:36:57;20.38;;;16.08;;
16330;SDS011;8275;48.206;16.340;2022-12-29T14:39:32;17.85;;;12.88;;
16330;SDS011;8275;48.206;16.340;2022-12-29T14:42:05;16.08;;;11.77;;
16330;SDS011;8275;48.206;16.340;2022-12-29T14:44:47;17.65;;;14.18;;
16330;SDS011;8275;48.206;16.340;2022-12-29T14:47:18;16.05;;;12.52;;
16330;SDS011;8275;48.206;16.340;2022-12-29T14:49:51;15.40;;;13.93;;
16330;SDS011;8275;48.206;16.340;2022-12-29T14:52:22;17.48;;;13.60;;
16330;SDS011;8275;48.206;16.340;2022-12-29T14:54:55;16.17;;;13.55;;
16330;SDS011;8275;48.206;16.340;2022-12-29T14:57:28;18.20;;;14.38;;
16330;SDS011;8275;48.206;16.340;2022-12-29T15:00:08;14.93;;;12.90;;
16330;SDS011;8275;48.206;16.340;2022-12-29T15:02:46;18.67;;;13.48;;
16330;SDS011;8275;48.206;16.340;2022-12-29T15:05:29;17.50;;;13.15;;
16330;SDS011;8275;48.206;16.340;2022-12-29T15:08:02;18.77;;;13.43;;
16330;SDS011;8275;48.206;16.340;2022-12-29T15:10:36;14.75;;;10.75;;
16330;SDS011;8275;48.206;16.340;2022-12-29T15:13:15;15.32;;;12.13;;
16330;SDS011;8275;48.206;16.340;2022-12-29T15:15:50;15.40;;;12.63;;
16330;SDS011;8275;48.206;16.340;2022-12-29T15:18:21;15.48;;;12.95;;
16330;SDS011;8275;48.206;16.340;2022-12-29T15:20:53;15.40;;;12.88;;
16330;SDS011;8275;48.206;16.340;2022-12-29T15:23:24;15.57;;;13.02;;
16330;SDS011;8275;48.206;16.340;2022-12-29T15:25:54;17.40;;;13.32;;